Time;durP1;ratioP1;P1;durP2;ratioP2;P2;SDS_P1;SDS_P2;PMS_P1;PMS_P2;Temp;Humidity;BMP_temperature;BMP_pressure;BME280_temperature;BME280_humidity;BME280_pressure;Samples;Min_cycle;Max_cycle;Signal;HPM_P1;HPM_P2
2022/08/17 00:01:04;;;;;;;7.73;5.80;;;16.50;99.90;;;;;;5072396;28;20051;-75
2022/08/17 00:03:37;;;;;;;12.65;6.00;;;16.50;99.90;;;;;;5071935;28;20262;-75
2022/08/17 00:06:15;;;;;;;10.02;6.05;;;16.40;99.90;;;;;;5072501;28;20028;-75
2022/08/17 00:08:53;;;;;;;10.63;6.00;;;16.40;99.90;;;;;;5063299;28;20040;-75
2022/08/17 00:11:40;;;;;;;12.88;6.15;;;16.40;99.90;;;;;;5074479;28;20025;-75
2022/08/17 00:14:13;;;;;;;9.75;5.40;;;16.40;99.90;;;;;;5082294;28;20034;-75
2022/08/17 00:16:46;;;;;;;8.38;5.18;;;16.40;99.90;;;;;;5092162;28;20028;-75
2022/08/17 00:19:14;;;;;;;6.68;5.65;;;16.40;99.90;;;;;;5073787;28;20035;-75
2022/08/17 00:21:43;;;;;;;7.25;5.88;;;16.40;99.90;;;;;;5086247;28;20044;-75
2022/08/17 00:24:10;;;;;;;11.80;5.90;;;16.40;99.90;;;;;;5084773;28;20070;-75
2022/08/17 00:26:35;;;;;;;7.10;5.72;;;16.40;99.90;;;;;;5092029;28;20051;-78
2022/08/17 00:29:01;;;;;;;7.15;5.70;;;16.40;99.90;;;;;;5091548;28;20090;-77
2022/08/17 00:31:27;;;;;;;8.57;5.30;;;16.30;99.90;;;;;;5091963;28;20032;-77
2022/08/17 00:33:53;;;;;;;8.18;5.50;;;16.30;99.90;;;;;;5091912;28;20032;-77
2022/08/17 00:36:18;;;;;;;8.98;5.82;;;16.30;99.90;;;;;;5086853;28;20085;-78
2022/08/17 00:38:44;;;;;;;9.10;5.50;;;16.30;99.90;;;;;;5072481;28;20032;-77
2022/08/17 00:41:17;;;;;;;12.60;6.57;;;16.20;99.90;;;;;;5091690;28;20070;-77
2022/08/17 00:43:44;;;;;;;8.43;5.40;;;16.20;99.90;;;;;;5091687;28;20032;-77
2022/08/17 00:46:17;;;;;;;7.93;5.85;;;16.20;99.90;;;;;;5091706;28;20035;-78
2022/08/17 00:48:43;;;;;;;6.22;5.63;;;16.20;99.90;;;;;;5091450;28;20469;-78
2022/08/17 00:51:33;;;;;;;10.00;5.68;;;16.10;99.90;;;;;;5088965;28;20134;-78
2022/08/17 00:54:05;;;;;;;8.60;6.38;;;16.10;99.90;;;;;;5091768;28;20032;-77
2022/08/17 00:56:36;;;;;;;6.63;5.60;;;16.10;99.90;;;;;;5091194;28;20104;-78
2022/08/17 00:59:06;;;;;;;11.68;5.82;;;16.10;99.90;;;;;;5091400;28;20377;-78
2022/08/17 01:01:32;;;;;;;8.80;6.28;;;16.10;99.90;;;;;;5091142;28;20067;-75
2022/08/17 01:04:00;;;;;;;9.77;5.82;;;16.10;99.90;;;;;;5090131;28;20128;-75
2022/08/17 01:06:27;;;;;;;9.50;6.05;;;16.00;99.90;;;;;;5061612;28;20032;-75
2022/08/17 01:08:54;;;;;;;8.20;6.28;;;16.00;99.90;;;;;;5091098;28;20384;-75
2022/08/17 01:11:20;;;;;;;8.35;6.55;;;16.00;99.90;;;;;;5084980;28;20112;-75
2022/08/17 01:13:46;;;;;;;9.30;5.85;;;16.00;99.90;;;;;;5074502;28;20545;-75
2022/08/17 01:16:23;;;;;;;8.30;5.55;;;15.90;99.90;;;;;;5091324;28;20038;-75
2022/08/17 01:18:53;;;;;;;7.65;6.00;;;15.90;99.90;;;;;;5084456;28;20036;-75
2022/08/17 01:21:37;;;;;;;10.07;5.90;;;15.90;99.90;;;;;;5091113;28;20097;-75
2022/08/17 01:24:03;;;;;;;9.90;6.13;;;15.90;99.90;;;;;;5090901;28;20681;-75
2022/08/17 01:26:31;;;;;;;12.93;6.07;;;15.80;99.90;;;;;;5090812;28;20032;-75
2022/08/17 01:28:58;;;;;;;11.77;6.40;;;15.80;99.90;;;;;;5090752;28;20075;-75
2022/08/17 01:31:27;;;;;;;6.88;5.90;;;15.80;99.90;;;;;;5089958;28;20020;-75
2022/08/17 01:33:53;;;;;;;9.10;6.30;;;15.80;99.90;;;;;;5083492;28;20089;-76
2022/08/17 01:36:19;;;;;;;8.95;6.13;;;15.80;99.90;;;;;;5090658;28;20427;-75
2022/08/17 01:38:45;;;;;;;8.75;6.05;;;15.80;99.90;;;;;;5090574;28;20457;-75
2022/08/17 01:41:14;;;;;;;8.77;6.25;;;15.70;99.90;;;;;;5090133;28;20112;-75
2022/08/17 01:43:49;;;;;;;10.57;6.50;;;15.60;99.90;;;;;;5090776;28;20044;-77
2022/08/17 01:46:20;;;;;;;10.75;6.28;;;15.60;99.90;;;;;;5067759;28;20057;-78
2022/08/17 01:48:47;;;;;;;8.93;6.15;;;15.60;99.90;;;;;;5070329;28;20460;-77
2022/08/17 01:51:14;;;;;;;8.43;5.95;;;15.60;99.90;;;;;;5070100;28;20342;-77
2022/08/17 01:53:46;;;;;;;10.85;6.00;;;15.50;99.90;;;;;;5070182;28;20111;-77
2022/08/17 01:56:15;;;;;;;8.60;6.43;;;15.50;99.90;;;;;;5070205;28;20036;-77
2022/08/17 01:58:42;;;;;;;9.55;6.45;;;15.60;99.90;;;;;;5070098;28;20051;-77
2022/08/17 02:01:09;;;;;;;6.47;5.75;;;15.50;99.90;;;;;;5062532;28;20537;-78
2022/08/17 02:03:36;;;;;;;8.15;6.30;;;15.50;99.90;;;;;;5070261;28;20051;-78
2022/08/17 02:06:04;;;;;;;9.55;6.72;;;15.50;99.90;;;;;;5053560;28;20477;-77
2022/08/17 02:08:34;;;;;;;7.57;5.93;;;15.50;99.90;;;;;;5052945;28;20174;-78
2022/08/17 02:11:03;;;;;;;9.90;6.30;;;15.50;99.90;;;;;;5070203;28;20508;-77
2022/08/17 02:13:32;;;;;;;9.35;6.65;;;15.50;99.90;;;;;;5065723;28;20107;-79
2022/08/17 02:15:58;;;;;;;8.48;6.70;;;15.40;99.90;;;;;;5070211;28;20461;-78
2022/08/17 02:18:24;;;;;;;7.35;6.40;;;15.50;99.90;;;;;;5070230;28;20029;-78
2022/08/17 02:20:51;;;;;;;9.48;6.38;;;15.40;99.90;;;;;;5069687;28;20027;-78
2022/08/17 02:23:17;;;;;;;8.60;6.32;;;15.40;99.90;;;;;;5069910;28;20029;-77
2022/08/17 02:25:46;;;;;;;8.52;6.30;;;15.30;99.90;;;;;;5069974;28;20474;-78
2022/08/17 02:28:12;;;;;;;9.25;6.78;;;15.30;99.90;;;;;;5051810;28;20058;-75
2022/08/17 02:30:38;;;;;;;8.65;6.30;;;15.40;99.90;;;;;;5069754;28;20111;-75
2022/08/17 02:33:05;;;;;;;7.60;6.57;;;15.40;99.90;;;;;;5069633;28;20024;-75
2022/08/17 02:35:31;;;;;;;10.27;6.38;;;15.30;99.90;;;;;;5069960;28;20038;-78
2022/08/17 02:37:57;;;;;;;9.05;6.20;;;15.30;99.90;;;;;;5070016;28;20047;-78
2022/08/17 02:40:23;;;;;;;10.20;7.00;;;15.30;99.90;;;;;;5070065;28;20020;-77
2022/08/17 02:42:48;;;;;;;9.18;6.43;;;15.20;99.90;;;;;;5069719;28;20036;-78
2022/08/17 02:45:21;;;;;;;8.75;6.95;;;15.20;99.90;;;;;;5069539;28;20017;-78
2022/08/17 02:47:47;;;;;;;13.73;7.75;;;15.20;99.90;;;;;;5069904;28;20121;-77
2022/08/17 02:50:16;;;;;;;9.77;6.80;;;15.20;99.90;;;;;;5069583;28;20095;-78
2022/08/17 02:52:43;;;;;;;8.57;7.10;;;15.20;99.90;;;;;;5072165;28;20067;-78
2022/08/17 02:55:16;;;;;;;9.38;6.35;;;15.10;99.90;;;;;;5073258;28;20036;-78
2022/08/17 02:57:43;;;;;;;9.73;6.22;;;15.10;99.90;;;;;;5073199;28;20025;-77
2022/08/17 03:00:12;;;;;;;10.35;6.32;;;15.10;99.90;;;;;;5073378;28;20089;-78
2022/08/17 03:02:40;;;;;;;8.55;6.80;;;15.10;99.90;;;;;;5073256;28;20123;-78
2022/08/17 03:05:08;;;;;;;10.45;6.82;;;15.10;99.90;;;;;;5073276;28;20025;-77
2022/08/17 03:07:34;;;;;;;9.85;6.95;;;15.00;99.90;;;;;;5073187;28;20032;-78
2022/08/17 03:09:59;;;;;;;8.40;6.57;;;15.00;99.90;;;;;;5073145;28;20033;-78
2022/08/17 03:12:28;;;;;;;9.45;6.82;;;15.00;99.90;;;;;;5071165;28;20036;-78
2022/08/17 03:14:53;;;;;;;9.25;6.90;;;15.00;99.90;;;;;;5068533;28;20028;-78
2022/08/17 03:17:19;;;;;;;9.63;6.95;;;14.90;99.90;;;;;;5073075;28;20028;-77
2022/08/17 03:19:44;;;;;;;10.43;6.75;;;14.90;99.90;;;;;;5072990;28;20056;-75
2022/08/17 03:22:10;;;;;;;14.75;6.88;;;14.90;99.90;;;;;;5072820;28;20032;-75
2022/08/17 03:24:36;;;;;;;12.48;7.18;;;14.90;99.90;;;;;;5073003;28;20039;-76
2022/08/17 03:27:01;;;;;;;9.68;6.75;;;14.90;99.90;;;;;;5073033;28;20044;-75
2022/08/17 03:29:27;;;;;;;9.98;6.68;;;14.80;99.90;;;;;;5072542;28;20178;-76
2022/08/17 03:31:52;;;;;;;11.32;6.68;;;14.80;99.90;;;;;;5072754;28;20033;-75
2022/08/17 03:34:18;;;;;;;9.50;7.13;;;14.80;99.90;;;;;;5072676;28;20028;-75
2022/08/17 03:36:44;;;;;;;7.80;6.40;;;14.80;99.90;;;;;;5073254;28;20024;-75
2022/08/17 03:39:09;;;;;;;9.20;7.03;;;14.80;99.90;;;;;;5072521;28;20032;-75
2022/08/17 03:41:35;;;;;;;12.38;8.05;;;14.70;99.90;;;;;;5072892;28;20094;-75
2022/08/17 03:44:01;;;;;;;9.07;7.00;;;14.70;99.90;;;;;;5072674;28;20450;-75
2022/08/17 03:57:26;;;;;;;12.23;6.82;;;14.60;99.90;;;;;;5072487;28;20028;-75
2022/08/17 03:59:53;;;;;;;10.32;6.75;;;14.60;99.90;;;;;;5072208;28;20033;-75
2022/08/17 04:02:25;;;;;;;10.68;6.70;;;14.60;99.90;;;;;;5072017;28;20449;-75
2022/08/17 04:04:52;;;;;;;12.18;6.88;;;14.60;99.90;;;;;;5072217;28;20020;-75
2022/08/17 04:07:20;;;;;;;10.40;7.68;;;14.50;99.90;;;;;;5072115;28;20028;-77
2022/08/17 04:09:45;;;;;;;8.93;7.00;;;14.50;99.90;;;;;;5072508;28;20411;-76
2022/08/17 04:12:14;;;;;;;10.77;7.18;;;14.50;99.90;;;;;;5066221;28;20033;-77
2022/08/17 04:14:40;;;;;;;9.75;7.05;;;14.50;99.90;;;;;;5067318;28;20071;-76
2022/08/17 04:17:06;;;;;;;8.95;7.30;;;14.50;99.90;;;;;;5071699;28;20489;-79
2022/08/17 04:19:32;;;;;;;9.90;6.97;;;14.50;99.90;;;;;;5072028;28;20042;-79
2022/08/17 04:21:58;;;;;;;9.10;7.25;;;14.40;99.90;;;;;;5073094;28;20093;-79
2022/08/17 04:24:24;;;;;;;10.73;7.10;;;14.40;99.90;;;;;;5065870;28;20503;-79
2022/08/17 04:26:50;;;;;;;10.45;7.25;;;14.40;99.90;;;;;;5085039;28;20043;-79
2022/08/17 04:29:15;;;;;;;8.70;7.53;;;14.40;99.90;;;;;;5079273;28;20064;-79
2022/08/17 04:31:42;;;;;;;13.55;7.38;;;14.40;99.90;;;;;;5077677;28;20836;-79
2022/08/17 04:34:08;;;;;;;12.27;6.93;;;14.50;99.90;;;;;;5078574;28;20024;-79
2022/08/17 04:36:33;;;;;;;9.10;6.70;;;14.40;99.90;;;;;;5080436;28;20017;-79
2022/08/17 04:38:59;;;;;;;10.90;6.97;;;14.50;99.90;;;;;;5078066;28;20091;-79
2022/08/17 04:44:10;;;;;;;10.38;7.38;;;14.50;99.90;;;;;;5081910;28;20529;-77
2022/08/17 04:46:36;;;;;;;12.45;7.75;;;14.50;99.90;;;;;;5066392;28;20015;-77
2022/08/17 04:49:06;;;;;;;10.70;7.50;;;14.60;99.90;;;;;;5074574;28;20554;-77
2022/08/17 04:51:44;;;;;;;9.02;6.85;;;14.60;99.90;;;;;;5074464;28;20031;-77
2022/08/17 04:54:14;;;;;;;10.73;7.10;;;14.70;99.90;;;;;;5071911;28;20129;-77
2022/08/17 04:56:41;;;;;;;9.30;7.18;;;14.70;99.90;;;;;;5074023;28;20407;-79
2022/08/17 04:59:15;;;;;;;10.98;7.22;;;14.80;99.90;;;;;;5068342;28;20111;-79
2022/08/17 05:01:44;;;;;;;11.98;6.78;;;14.90;99.90;;;;;;5078629;28;20039;-79
2022/08/17 05:04:16;;;;;;;9.40;6.70;;;14.90;99.90;;;;;;5079392;28;20028;-79
2022/08/17 05:06:43;;;;;;;11.93;7.07;;;15.00;99.90;;;;;;5057933;28;20039;-79
2022/08/17 05:09:08;;;;;;;11.38;7.63;;;15.00;99.90;;;;;;5079732;28;20044;-79
2022/08/17 05:11:35;;;;;;;10.77;7.70;;;14.90;99.90;;;;;;5076210;28;20032;-79
2022/08/17 05:14:00;;;;;;;12.55;7.30;;;14.90;99.90;;;;;;5077687;28;20035;-79
2022/08/17 05:16:27;;;;;;;12.18;7.38;;;14.90;99.90;;;;;;5073091;28;20016;-79
2022/08/17 05:18:54;;;;;;;17.23;8.15;;;14.90;99.90;;;;;;5073872;28;20472;-79
2022/08/17 05:21:22;;;;;;;13.77;6.80;;;15.00;99.90;;;;;;5052213;28;20028;-79
2022/08/17 05:23:48;;;;;;;9.90;6.93;;;15.10;99.90;;;;;;5069850;28;20107;-78
2022/08/17 05:26:16;;;;;;;8.25;6.63;;;15.10;99.90;;;;;;5070682;28;20036;-78
2022/08/17 05:28:42;;;;;;;8.13;6.63;;;15.20;99.90;;;;;;5070176;28;20077;-78
2022/08/17 05:31:08;;;;;;;9.27;6.72;;;15.30;99.90;;;;;;5070324;28;20020;-76
2022/08/17 05:33:38;;;;;;;10.43;6.88;;;15.40;99.90;;;;;;5052693;28;20065;-76
2022/08/17 05:36:06;;;;;;;10.75;6.95;;;15.50;99.90;;;;;;5069948;28;20070;-76
2022/08/17 05:38:33;;;;;;;12.35;7.05;;;15.60;99.90;;;;;;5070707;28;20162;-76
2022/08/17 05:41:01;;;;;;;14.48;6.85;;;15.70;99.90;;;;;;5070638;28;20024;-76
2022/08/17 05:43:32;;;;;;;9.90;6.13;;;15.80;99.90;;;;;;5066889;28;20025;-76
2022/08/17 05:46:27;;;;;;;10.43;6.72;;;16.00;99.90;;;;;;5070498;28;20056;-76
2022/08/17 05:48:57;;;;;;;7.85;6.82;;;16.00;99.90;;;;;;5044725;28;20032;-76
2022/08/17 05:51:55;;;;;;;9.90;7.18;;;16.20;99.90;;;;;;5082030;28;20027;-76
2022/08/17 05:54:39;;;;;;;10.30;6.72;;;16.20;99.90;;;;;;5021741;28;20051;-76
2022/08/17 05:57:19;;;;;;;13.77;6.95;;;16.40;99.90;;;;;;5069879;28;20020;-76
2022/08/17 06:00:18;;;;;;;10.38;6.70;;;16.50;99.90;;;;;;5070439;28;20036;-76
2022/08/17 06:03:11;;;;;;;10.25;6.65;;;16.70;99.90;;;;;;5064384;28;20035;-76
2022/08/17 06:05:49;;;;;;;10.07;7.10;;;16.80;99.90;;;;;;5061949;28;20032;-76
2022/08/17 06:08:32;;;;;;;10.57;7.22;;;17.00;99.90;;;;;;5063209;28;20029;-76
2022/08/17 06:11:35;;;;;;;10.18;7.30;;;17.10;99.90;;;;;;5056650;28;20486;-77
2022/08/17 06:14:19;;;;;;;9.48;7.80;;;17.30;99.90;;;;;;5065592;28;20017;-77
2022/08/17 06:16:49;;;;;;;11.40;7.22;;;17.40;99.90;;;;;;5080511;28;20028;-77
2022/08/17 06:19:35;;;;;;;10.32;7.63;;;17.60;99.90;;;;;;5080064;28;20029;-77
2022/08/17 06:22:02;;;;;;;10.88;7.50;;;17.70;99.90;;;;;;5068744;28;20048;-77
2022/08/17 06:24:38;;;;;;;8.00;6.90;;;17.80;99.90;;;;;;5069626;28;20475;-77
2022/08/17 06:27:21;;;;;;;11.10;6.95;;;18.00;99.90;;;;;;5063262;28;20048;-77
2022/08/17 06:30:20;;;;;;;10.13;6.53;;;18.10;99.90;;;;;;5065295;28;20053;-77
2022/08/17 06:32:48;;;;;;;10.65;6.25;;;18.30;99.90;;;;;;5041122;28;20128;-77
2022/08/17 06:35:18;;;;;;;10.50;7.05;;;18.40;99.90;;;;;;5062822;28;20033;-77
2022/08/17 06:38:15;;;;;;;10.27;7.05;;;18.60;99.90;;;;;;5055100;28;20025;-74
2022/08/17 06:40:48;;;;;;;9.15;6.85;;;18.70;99.90;;;;;;5079899;28;20058;-74
2022/08/17 06:43:32;;;;;;;8.18;6.65;;;18.80;99.90;;;;;;5081152;28;20115;-73
2022/08/17 06:46:05;;;;;;;9.43;6.00;;;18.90;99.90;;;;;;5084933;28;20081;-74
2022/08/17 06:48:45;;;;;;;11.77;6.82;;;19.00;99.90;;;;;;5081599;28;20035;-73
2022/08/17 06:51:34;;;;;;;10.43;6.15;;;19.10;99.90;;;;;;5081167;28;20069;-73
2022/08/17 06:54:15;;;;;;;9.00;6.25;;;19.20;99.90;;;;;;5077885;28;20024;-74
2022/08/17 06:56:47;;;;;;;6.72;5.90;;;19.30;99.90;;;;;;5076332;28;20033;-74
2022/08/17 06:59:18;;;;;;;10.82;7.55;;;19.40;99.90;;;;;;5076264;28;20048;-78
2022/08/17 07:01:45;;;;;;;9.23;5.68;;;19.50;99.90;;;;;;5074053;28;20024;-74
2022/08/17 07:04:18;;;;;;;10.68;5.85;;;19.60;99.90;;;;;;5073370;28;20528;-74
2022/08/17 07:06:58;;;;;;;7.72;5.80;;;19.60;99.90;;;;;;5072077;28;20033;-74
2022/08/17 07:09:36;;;;;;;7.25;6.15;;;19.70;99.90;;;;;;5066105;28;20044;-74
2022/08/17 07:12:14;;;;;;;8.32;5.70;;;19.80;99.90;;;;;;5069320;28;20082;-74
2022/08/17 07:14:56;;;;;;;9.52;5.38;;;20.00;99.90;;;;;;5072063;28;20039;-82
2022/08/17 07:17:23;;;;;;;6.50;5.38;;;20.10;99.90;;;;;;5062391;28;20490;-74
2022/08/17 07:19:52;;;;;;;7.13;5.20;;;20.20;99.90;;;;;;5076491;28;20028;-74
2022/08/17 07:22:36;;;;;;;8.15;5.35;;;20.30;99.90;;;;;;5068408;28;20044;-73
2022/08/17 07:25:05;;;;;;;10.48;5.82;;;20.40;99.90;;;;;;5064370;28;20048;-74
2022/08/17 07:27:37;;;;;;;11.50;5.63;;;20.50;99.90;;;;;;5064733;28;20040;-74
2022/08/17 07:30:15;;;;;;;9.02;5.30;;;20.50;99.90;;;;;;5068865;28;20041;-74
2022/08/17 07:32:44;;;;;;;7.05;4.95;;;20.60;99.90;;;;;;5066294;28;20528;-73
2022/08/17 07:35:16;;;;;;;6.95;4.68;;;20.70;99.90;;;;;;5075693;28;20032;-73
2022/08/17 07:37:51;;;;;;;6.70;4.57;;;20.80;99.90;;;;;;5068776;28;20055;-70
2022/08/17 07:40:20;;;;;;;11.65;4.95;;;21.00;99.90;;;;;;5073277;28;20032;-70
2022/08/17 07:43:19;;;;;;;8.35;4.45;;;21.10;99.90;;;;;;5075270;28;20048;-71
2022/08/17 07:49:17;;;;;;;8.57;4.82;;;21.30;99.90;;;;;;5068028;28;20039;-77
2022/08/17 07:51:43;;;;;;;8.63;5.00;;;21.30;99.90;;;;;;5079310;28;20123;-82
2022/08/17 07:54:14;;;;;;;11.93;5.30;;;21.40;99.90;;;;;;5072652;28;20147;-82
2022/08/17 07:56:56;;;;;;;8.82;4.75;;;21.50;99.90;;;;;;5068957;28;20024;-83
2022/08/17 07:59:24;;;;;;;11.15;5.35;;;21.60;99.90;;;;;;5063134;28;20033;-82
2022/08/17 08:01:56;;;;;;;7.93;4.90;;;21.70;99.90;;;;;;5069581;28;20131;-82
2022/08/17 08:04:30;;;;;;;8.45;4.78;;;21.80;99.90;;;;;;5067191;28;20032;-82
2022/08/17 08:06:58;;;;;;;8.77;4.25;;;22.00;99.90;;;;;;5071248;28;20035;-82
2022/08/17 08:09:33;;;;;;;6.38;4.32;;;22.10;99.90;;;;;;5071789;28;20017;-82
2022/08/17 08:12:20;;;;;;;9.32;5.03;;;22.30;99.90;;;;;;5051817;28;20481;-82
2022/08/17 08:14:55;;;;;;;8.60;4.22;;;22.40;99.90;;;;;;5066132;28;20032;-82
2022/08/17 08:17:24;;;;;;;10.32;4.53;;;22.60;99.90;;;;;;5070419;28;20035;-71
2022/08/17 08:19:49;;;;;;;7.43;4.45;;;22.80;99.90;;;;;;5075056;28;20028;-74
2022/08/17 08:22:27;;;;;;;6.80;3.90;;;22.90;99.90;;;;;;5074990;28;20028;-73
2022/08/17 08:25:09;;;;;;;9.95;4.57;;;23.00;99.90;;;;;;5075029;28;20020;-73
2022/08/17 08:27:55;;;;;;;7.38;4.25;;;23.10;99.90;;;;;;5074579;28;20387;-73
2022/08/17 08:30:22;;;;;;;9.20;4.07;;;23.30;99.90;;;;;;5074965;28;20033;-75
2022/08/17 08:32:53;;;;;;;8.13;4.38;;;23.40;99.90;;;;;;5074594;28;20021;-74
2022/08/17 08:35:36;;;;;;;9.43;4.30;;;23.40;99.90;;;;;;5074605;28;20025;-74
2022/08/17 08:38:09;;;;;;;12.45;4.50;;;23.50;99.90;;;;;;5074813;28;20066;-73
2022/08/17 08:41:10;;;;;;;10.35;4.75;;;23.60;99.90;;;;;;5074624;28;20036;-74
2022/08/17 08:43:53;;;;;;;8.85;4.20;;;23.70;99.90;;;;;;4993398;28;20085;-74
2022/08/17 08:46:59;;;;;;;9.30;4.68;;;23.80;99.90;;;;;;5067089;28;20063;-77
2022/08/17 08:49:46;;;;;;;8.32;4.32;;;23.90;99.90;;;;;;5062096;28;20051;-77
2022/08/17 08:52:46;;;;;;;9.50;4.00;;;24.00;99.90;;;;;;5047471;28;20417;-78
2022/08/17 08:55:51;;;;;;;7.15;3.90;;;24.10;99.90;;;;;;5068920;28;20149;-78
2022/08/17 08:58:23;;;;;;;7.85;4.28;;;24.30;99.90;;;;;;5072023;28;20487;-77
2022/08/17 09:00:53;;;;;;;11.50;4.43;;;24.40;99.90;;;;;;5069678;28;20059;-78
2022/08/17 09:03:57;;;;;;;6.60;4.05;;;24.60;99.90;;;;;;5066907;28;20354;-78
2022/08/17 09:07:00;;;;;;;5.00;4.05;;;24.70;99.90;;;;;;5071130;28;20062;-78
2022/08/17 09:09:56;;;;;;;8.50;3.90;;;24.80;99.90;;;;;;5070472;28;20099;-78
2022/08/17 09:12:48;;;;;;;9.45;3.75;;;24.90;99.90;;;;;;5064510;28;20482;-78
2022/08/17 09:15:24;;;;;;;7.03;3.70;;;25.00;99.90;;;;;;5065298;28;20049;-78
2022/08/17 09:18:18;;;;;;;6.68;3.72;;;25.20;99.90;;;;;;5059910;28;20033;-78
2022/08/17 09:20:49;;;;;;;9.27;3.45;;;25.40;99.90;;;;;;5069972;28;20020;-78
2022/08/17 09:23:29;;;;;;;11.73;3.92;;;25.60;99.90;;;;;;5070408;28;20024;-78
2022/08/17 09:26:09;;;;;;;7.57;3.63;;;25.70;99.90;;;;;;5065427;28;20020;-78
2022/08/17 09:28:37;;;;;;;5.60;3.70;;;26.00;99.90;;;;;;5069984;28;20497;-78
2022/08/17 09:31:16;;;;;;;4.85;3.65;;;26.30;99.90;;;;;;5069577;28;20052;-78
2022/08/17 09:33:45;;;;;;;5.10;3.20;;;26.40;99.90;;;;;;5069894;28;20051;-78
2022/08/17 09:36:19;;;;;;;7.68;3.67;;;26.70;99.90;;;;;;5067469;28;20017;-78
2022/08/17 09:39:03;;;;;;;5.03;3.90;;;26.90;99.90;;;;;;5070170;28;20465;-79
2022/08/17 09:41:56;;;;;;;7.85;3.75;;;27.00;99.90;;;;;;5070129;28;20024;-78
2022/08/17 09:44:43;;;;;;;4.32;3.50;;;27.20;99.90;;;;;;5070296;28;20085;-78
2022/08/17 09:47:32;;;;;;;6.90;3.72;;;27.40;99.90;;;;;;5069316;28;20025;-78
2022/08/17 09:50:30;;;;;;;4.10;3.30;;;27.50;99.90;;;;;;5079750;28;20033;-78
2022/08/17 09:52:58;;;;;;;4.10;2.97;;;27.70;99.90;;;;;;5056873;28;20040;-78
2022/08/17 09:55:42;;;;;;;7.10;3.35;;;27.80;99.90;;;;;;5069748;28;20029;-77
2022/08/17 09:58:27;;;;;;;5.75;3.40;;;28.00;99.90;;;;;;5069486;28;20059;-79
2022/08/17 10:01:00;;;;;;;5.95;3.65;;;28.10;99.90;;;;;;5068921;28;20039;-79
2022/08/17 10:04:11;;;;;;;6.05;3.30;;;28.30;99.90;;;;;;5067706;28;20033;-78
2022/08/17 10:07:11;;;;;;;7.40;3.95;;;28.60;99.90;;;;;;5008030;28;20335;-79
2022/08/17 10:09:55;;;;;;;4.40;3.15;;;28.70;99.90;;;;;;4989007;28;20479;-79
2022/08/17 10:12:34;;;;;;;5.55;3.10;;;29.00;99.90;;;;;;5053400;28;20102;-79
2022/08/17 10:15:14;;;;;;;4.57;3.15;;;29.00;99.90;;;;;;5065838;28;20016;-79
2022/08/17 10:17:55;;;;;;;9.98;3.50;;;29.20;99.90;;;;;;5070133;28;20385;-79
2022/08/17 10:20:39;;;;;;;6.20;3.42;;;29.30;99.90;;;;;;5066532;28;20024;-79
2022/08/17 10:26:19;;;;;;;4.78;3.20;;;29.60;99.90;;;;;;5062672;28;20534;-80
2022/08/17 10:29:08;;;;;;;5.88;3.22;;;29.80;99.70;;;;;;5069637;28;20514;-80
2022/08/17 10:31:44;;;;;;;5.15;3.38;;;30.00;98.70;;;;;;5055481;28;20044;-80
2022/08/17 10:34:51;;;;;;;6.57;3.40;;;30.20;99.40;;;;;;5068869;28;20111;-79
2022/08/17 10:37:43;;;;;;;9.13;3.67;;;30.20;98.50;;;;;;5065729;28;20024;-78
2022/08/17 10:40:31;;;;;;;6.80;3.33;;;30.30;97.40;;;;;;5068298;28;20074;-79
2022/08/17 10:42:59;;;;;;;5.63;3.63;;;30.20;97.50;;;;;;5068040;28;20505;-80
2022/08/17 10:45:43;;;;;;;10.07;3.40;;;30.30;97.00;;;;;;5060576;28;20045;-79
2022/08/17 10:48:10;;;;;;;;;;;30.40;96.90;;;;;;5066553;28;20446;-79
2022/08/17 10:51:02;;;;;;;6.05;3.50;;;30.30;96.10;;;;;;5066411;28;19908;-79
2022/08/17 10:53:30;;;;;;;5.75;3.13;;;30.30;95.90;;;;;;5048640;28;20350;-79
2022/08/17 10:56:16;;;;;;;6.55;3.30;;;30.40;95.30;;;;;;5069233;28;20035;-79
2022/08/17 10:58:56;;;;;;;4.43;2.90;;;30.50;95.60;;;;;;5074535;28;20033;-78
2022/08/17 11:01:31;;;;;;;9.85;3.75;;;30.50;95.50;;;;;;5057453;28;20040;-79
2022/08/17 11:04:06;;;;;;;5.65;3.30;;;30.80;94.10;;;;;;5063910;28;20120;-79
2022/08/17 11:06:47;;;;;;;6.65;3.47;;;30.80;94.70;;;;;;5057102;28;20734;-79
2022/08/17 11:09:43;;;;;;;4.50;3.35;;;30.80;94.20;;;;;;5063990;28;20028;-79
2022/08/17 11:12:37;;;;;;;4.55;3.30;;;31.00;94.20;;;;;;5057666;28;20032;-79
2022/08/17 11:15:20;;;;;;;6.83;3.30;;;31.30;94.30;;;;;;5068258;28;20031;-79
2022/08/17 11:18:00;;;;;;;4.97;3.10;;;31.30;94.00;;;;;;5072751;28;20020;-78
2022/08/17 11:20:44;;;;;;;8.73;3.22;;;31.30;92.30;;;;;;5070738;28;20063;-74
2022/08/17 11:23:58;;;;;;;5.85;3.50;;;31.40;92.00;;;;;;5070596;28;20413;-75
2022/08/17 11:26:35;;;;;;;3.58;2.60;;;31.40;92.50;;;;;;5054998;28;20392;-76
2022/08/17 11:29:07;;;;;;;7.07;3.10;;;31.70;92.30;;;;;;5067963;28;20040;-76
2022/08/17 11:31:38;;;;;;;5.68;3.13;;;31.90;90.50;;;;;;5072045;28;20112;-76
2022/08/17 11:34:18;;;;;;;7.57;2.78;;;31.90;90.20;;;;;;5071066;28;20035;-76
2022/08/17 11:36:53;;;;;;;5.43;3.10;;;32.40;89.30;;;;;;5060454;28;20119;-75
2022/08/17 11:39:33;;;;;;;5.80;3.00;;;32.50;88.30;;;;;;5063439;28;20080;-76
2022/08/17 11:42:28;;;;;;;5.47;2.47;;;32.50;86.70;;;;;;5057478;28;20040;-75
2022/08/17 11:45:07;;;;;;;8.55;2.58;;;32.60;86.30;;;;;;5064315;28;20039;-74
2022/08/17 11:54:44;;;;;;;3.83;2.90;;;33.00;87.20;;;;;;5035225;28;20044;-75
2022/08/17 11:57:38;;;;;;;7.00;3.10;;;32.60;85.40;;;;;;5072344;28;20071;-75
2022/08/17 12:00:10;;;;;;;7.60;3.08;;;32.30;86.00;;;;;;5067500;28;20032;-75
2022/08/17 12:02:44;;;;;;;7.20;3.50;;;32.40;85.00;;;;;;5079496;28;20549;-75
2022/08/17 12:05:24;;;;;;;7.75;3.17;;;32.50;83.40;;;;;;5071603;28;20556;-75
2022/08/17 12:08:09;;;;;;;6.75;3.28;;;32.40;85.90;;;;;;5061802;28;20099;-75
2022/08/17 12:10:47;;;;;;;5.13;2.63;;;32.80;86.60;;;;;;5071219;28;20032;-75
2022/08/17 12:13:15;;;;;;;4.68;2.60;;;33.30;81.00;;;;;;5066294;28;20033;-75
2022/08/17 12:15:47;;;;;;;4.28;2.90;;;33.60;81.70;;;;;;5071643;28;20572;-75
2022/08/17 12:18:34;;;;;;;3.58;2.80;;;34.10;78.60;;;;;;5072448;28;20021;-75
2022/08/17 12:21:34;;;;;;;4.82;3.03;;;34.30;77.20;;;;;;5071659;28;20067;-75
2022/08/17 12:24:23;;;;;;;6.40;2.80;;;34.60;76.70;;;;;;5070054;28;20083;-75
2022/08/17 12:26:55;;;;;;;5.72;3.20;;;34.50;75.80;;;;;;5079690;28;20798;-75
2022/08/17 12:29:20;;;;;;;5.97;2.65;;;34.20;77.20;;;;;;5071491;28;20040;-72
2022/08/17 12:31:49;;;;;;;4.45;2.92;;;34.30;76.20;;;;;;5074737;28;20107;-73
2022/08/17 12:34:22;;;;;;;4.28;2.70;;;34.10;75.80;;;;;;5074546;28;20069;-73
2022/08/17 12:36:50;;;;;;;4.95;2.45;;;34.00;76.30;;;;;;5057858;28;20027;-73
2022/08/17 12:39:22;;;;;;;5.43;3.00;;;34.10;77.50;;;;;;5074950;28;20358;-74
2022/08/17 12:41:50;;;;;;;6.45;3.10;;;34.20;75.10;;;;;;5074928;28;20099;-74
2022/08/17 12:44:27;;;;;;;5.80;2.60;;;34.10;74.50;;;;;;5074813;28;20099;-74
2022/08/17 12:47:16;;;;;;;5.38;2.67;;;33.70;74.90;;;;;;5056886;28;20457;-73
2022/08/17 12:49:44;;;;;;;2.92;2.55;;;33.60;78.10;;;;;;5074380;28;20033;-72
2022/08/17 12:52:18;;;;;;;4.45;2.90;;;33.70;76.00;;;;;;5074400;28;20376;-73
2022/08/17 12:54:52;;;;;;;4.47;2.80;;;33.90;75.30;;;;;;5074339;28;20024;-73
2022/08/17 12:57:23;;;;;;;4.40;2.60;;;34.00;76.40;;;;;;5074198;28;20103;-73
2022/08/17 12:59:59;;;;;;;5.05;2.83;;;34.30;74.90;;;;;;5074057;28;20035;-73
2022/08/17 13:02:30;;;;;;;4.93;2.75;;;34.70;72.80;;;;;;5074315;28;20028;-74
2022/08/17 13:04:58;;;;;;;3.72;2.50;;;34.70;71.90;;;;;;5074081;28;20028;-74
2022/08/17 13:07:30;;;;;;;4.28;2.65;;;34.50;73.50;;;;;;5074239;28;20028;-74
2022/08/17 13:09:56;;;;;;;8.32;2.70;;;34.50;70.50;;;;;;5074004;28;20028;-74
2022/08/17 13:12:31;;;;;;;6.15;3.10;;;34.20;72.10;;;;;;5055116;28;20035;-75
2022/08/17 13:14:57;;;;;;;5.90;3.13;;;33.80;73.30;;;;;;5054053;28;20045;-74
2022/08/17 13:17:33;;;;;;;3.85;2.72;;;33.50;73.70;;;;;;5058206;28;20031;-74
2022/08/17 13:19:59;;;;;;;4.78;2.70;;;33.10;76.00;;;;;;5062612;28;20067;-73
2022/08/17 13:22:28;;;;;;;8.40;3.90;;;32.90;75.40;;;;;;5072062;28;20036;-73
2022/08/17 13:24:59;;;;;;;5.43;2.72;;;33.00;76.30;;;;;;5072173;28;20384;-73
2022/08/17 13:27:28;;;;;;;4.65;2.70;;;33.10;74.30;;;;;;5059153;28;20358;-73
2022/08/17 13:29:58;;;;;;;4.85;2.92;;;33.10;74.60;;;;;;5071973;28;20052;-73
2022/08/17 13:32:32;;;;;;;4.07;2.67;;;33.00;76.20;;;;;;5070775;28;20025;-73
2022/08/17 13:35:06;;;;;;;5.28;2.53;;;33.00;73.50;;;;;;5082521;28;20044;-73
2022/08/17 13:37:34;;;;;;;6.05;2.70;;;33.00;73.40;;;;;;5064994;28;20070;-73
2022/08/17 13:40:08;;;;;;;5.18;2.85;;;33.00;73.70;;;;;;5072834;28;20747;-72
2022/08/17 13:42:52;;;;;;;4.70;2.90;;;32.80;73.20;;;;;;5070849;28;20032;-77
2022/08/17 13:45:30;;;;;;;;;;;32.70;72.40;;;;;;5071057;28;20048;-77
2022/08/17 13:48:07;;;;;;;6.60;3.03;;;32.60;74.30;;;;;;5070563;28;19947;-76
2022/08/17 13:50:39;;;;;;;4.32;2.90;;;32.50;72.60;;;;;;5066131;28;20126;-76